Bowens Corners, New York
Current Conditions -  °F | °C
As of 2:54 PM on Sunday 21 Dec 2014 (Local Time) from KFZY Reporting Station
Haze Haze  
Wind Chill: 31°   Ceiling: 1600
Heat Index: 31°   Visibility: 6mi
Dew Point: 24°   Wind: 0mph
Humidity: 76%   Direction: NA
Pressure: 30.29"   Gusts: NA
Location:  43.3608°N, 76.3536°W
Report Text: KFZY 211954Z AUTO 00000KT 6SM HZ OVC016 M01/M04 A3029 RMK AO2 UPB05E41 SLP264 P0000 T10061044
Loading
Personal Weather Stations






























Interactive Weather Map New forecast layout! Learn more

10-Day Weather Forecast

Advertisements
Track Severe Weather on mobile